Map

Track Data

SID SEASON NUMBER BASIN SUBBASIN NAME ISO_TIME NATURE LAT LON WMO_WIND WMO_PRES WMO_AGENCY TRACK_TYPE DIST2LAND LANDFALL IFLAG USA_AGENCY USA_ATCF_ID USA_LAT USA_LON USA_RECORD USA_STATUS USA_WIND USA_PRES USA_SSHS USA_R34_NE USA_R34_SE USA_R34_SW USA_R34_NW USA_R50_NE USA_R50_SE USA_R50_SW USA_R50_NW USA_R64_NE USA_R64_SE USA_R64_SW USA_R64_NW USA_POCI USA_ROCI USA_RMW USA_EYE TOKYO_LAT TOKYO_LON TOKYO_GRADE TOKYO_WIND TOKYO_PRES TOKYO_R50_DIR TOKYO_R50_LONG TOKYO_R50_SHORT TOKYO_R30_DIR TOKYO_R30_LONG TOKYO_R30_SHORT TOKYO_LAND CMA_LAT CMA_LON CMA_CAT CMA_WIND CMA_PRES HKO_LAT HKO_LON HKO_CAT HKO_WIND HKO_PRES NEWDELHI_LAT NEWDELHI_LON NEWDELHI_GRADE NEWDELHI_WIND NEWDELHI_PRES NEWDELHI_CI NEWDELHI_DP NEWDELHI_POCI REUNION_LAT REUNION_LON REUNION_TYPE REUNION_WIND REUNION_PRES REUNION_TNUM REUNION_CI REUNION_RMW REUNION_R34_NE REUNION_R34_SE REUNION_R34_SW REUNION_R34_NW REUNION_R50_NE REUNION_R50_SE REUNION_R50_SW REUNION_R50_NW REUNION_R64_NE REUNION_R64_SE REUNION_R64_SW REUNION_R64_NW BOM_LAT BOM_LON BOM_TYPE BOM_WIND BOM_PRES BOM_TNUM BOM_CI BOM_RMW BOM_R34_NE BOM_R34_SE BOM_R34_SW BOM_R34_NW BOM_R50_NE BOM_R50_SE BOM_R50_SW BOM_R50_NW BOM_R64_NE BOM_R64_SE BOM_R64_SW BOM_R64_NW BOM_ROCI BOM_POCI BOM_EYE BOM_POS_METHOD BOM_PRES_METHOD NADI_LAT NADI_LON NADI_CAT NADI_WIND NADI_PRES WELLINGTON_LAT WELLINGTON_LON WELLINGTON_WIND WELLINGTON_PRES DS824_LAT DS824_LON DS824_STAGE DS824_WIND DS824_PRES TD9636_LAT TD9636_LON TD9636_STAGE TD9636_WIND TD9636_PRES TD9635_LAT TD9635_LON TD9635_WIND TD9635_PRES TD9635_ROCI NEUMANN_LAT NEUMANN_LON NEUMANN_CLASS NEUMANN_WIND NEUMANN_PRES MLC_LAT MLC_LON MLC_CLASS MLC_WIND MLC_PRES USA_GUST BOM_GUST BOM_GUST_PER REUNION_GUST REUNION_GUST_PER USA_SEAHGT USA_SEARAD_NE USA_SEARAD_SE USA_SEARAD_SW USA_SEARAD_NW STORM_SPEED STORM_DIR
1938040S14060 1938 13 SI MM NOT_NAMED 1938-02-09 06:00:00 NR -14.1000 60.4000 reunion main 730 718 _____O________ -1 -14.1000 60.4000 99 9.90000 5 266
1938040S14060 1938 13 SI MM NOT_NAMED 1938-02-09 09:00:00 NR -14.1170 60.1317 main 718 710 _____P________ -1 -14.1170 60.1317 99 5 266
1938040S14060 1938 13 SI MM NOT_NAMED 1938-02-09 12:00:00 NR -14.1346 59.8604 main 710 690 _____P________ -1 -14.1346 59.8604 99 5 266
1938040S14060 1938 13 SI MM NOT_NAMED 1938-02-09 15:00:00 NR -14.1536 59.5830 main 690 681 _____P________ -1 -14.1536 59.5830 99 5 266
1938040S14060 1938 13 SI MM NOT_NAMED 1938-02-09 18:00:00 NR -14.1750 59.2966 main 681 674 _____P________ -1 -14.1750 59.2966 99 6 265
1938040S14060 1938 13 SI MM NOT_NAMED 1938-02-09 21:00:00 NR -14.1995 58.9982 main 674 668 _____P________ -1 -14.1995 58.9982 99 6 265
1938040S14060 1938 13 SI MM NOT_NAMED 1938-02-10 00:00:00 NR -14.2279 58.6846 main 668 653 _____P________ -1 -14.2279 58.6846 99 6 264
1938040S14060 1938 13 SI MM NOT_NAMED 1938-02-10 03:00:00 NR -14.2612 58.3529 main 653 649 _____P________ -1 -14.2612 58.3529 99 7 264
1938040S14060 1938 13 SI MM NOT_NAMED 1938-02-10 06:00:00 NR -14.3000 58.0000 reunion main 649 649 _____O________ -1 -14.3000 58.0000 99 9.90000 7 263
1938040S14060 1938 13 SI MM NOT_NAMED 1938-02-10 09:00:00 NR -14.3443 57.6241 main 649 637 _____P________ -1 -14.3443 57.6241 99 8 263
1938040S14060 1938 13 SI MM NOT_NAMED 1938-02-10 12:00:00 NR -14.3910 57.2284 main 638 638 _____P________ -1 -14.3910 57.2284 99 8 263
1938040S14060 1938 13 SI MM NOT_NAMED 1938-02-10 15:00:00 NR -14.4361 56.8177 main 642 632 _____P________ -1 -14.4361 56.8177 99 8 264
1938040S14060 1938 13 SI MM NOT_NAMED 1938-02-10 18:00:00 NR -14.4756 56.3964 main 637 596 _____P________ -1 -14.4756 56.3964 99 8 265
1938040S14060 1938 13 SI MM NOT_NAMED 1938-02-10 21:00:00 NR -14.5056 55.9693 main 596 553 _____P________ -1 -14.5056 55.9693 99 8 267
1938040S14060 1938 13 SI MM NOT_NAMED 1938-02-11 00:00:00 NR -14.5222 55.5410 main 543 500 _____P________ -1 -14.5222 55.5410 99 8 269
1938040S14060 1938 13 SI MM NOT_NAMED 1938-02-11 03:00:00 NR -14.5216 55.1164 main 500 458 _____P________ -1 -14.5216 55.1164 99 8 272
1938040S14060 1938 13 SI MM NOT_NAMED 1938-02-11 06:00:00 NR -14.5000 54.7000 reunion main 458 418 _____O________ -1 -14.5000 54.7000 99 9.90000 8 278
1938040S14060 1938 13 SI MM NOT_NAMED 1938-02-11 09:00:00 NR -14.4044 54.2773 main 418 379 _____P________ -1 -14.4044 54.2773 99 8 285
1938040S14060 1938 13 SI MM NOT_NAMED 1938-02-11 12:00:00 NR -14.2827 53.8571 main 379 341 _____P________ -1 -14.2827 53.8571 99 8 288
1938040S14060 1938 13 SI MM NOT_NAMED 1938-02-11 15:00:00 NR -14.1473 53.4450 main 335 310 _____P________ -1 -14.1473 53.4450 99 8 289
1938040S14060 1938 13 SI MM NOT_NAMED 1938-02-11 18:00:00 NR -14.0105 53.0468 main 300 278 _____P________ -1 -14.0105 53.0468 99 8 289
1938040S14060 1938 13 SI MM NOT_NAMED 1938-02-11 21:00:00 NR -13.8849 52.6677 main 278 237 _____P________ -1 -13.8849 52.6677 99 7 288
1938040S14060 1938 13 SI MM NOT_NAMED 1938-02-12 00:00:00 NR -13.7830 52.3134 main 237 205 _____P________ -1 -13.7830 52.3134 99 7 284
1938040S14060 1938 13 SI MM NOT_NAMED 1938-02-12 03:00:00 NR -13.7171 51.9891 main 205 173 _____P________ -1 -13.7171 51.9891 99 6 278
1938040S14060 1938 13 SI MM NOT_NAMED 1938-02-12 06:00:00 NR -13.7000 51.7000 reunion main 173 151 _____O________ -1 -13.7000 51.7000 99 9.90000 5 262
1938040S14060 1938 13 SI MM NOT_NAMED 1938-02-12 09:00:00 NR -13.7853 51.4613 main 151 129 _____P________ -1 -13.7853 51.4613 99 5 243
1938040S14060 1938 13 SI MM NOT_NAMED 1938-02-12 12:00:00 NR -13.9189 51.2584 main 129 107 _____P________ -1 -13.9189 51.2584 99 5 230
1938040S14060 1938 13 SI MM NOT_NAMED 1938-02-12 15:00:00 NR -14.0895 51.0842 main 107 82 _____P________ -1 -14.0895 51.0842 99 5 221
1938040S14060 1938 13 SI MM NOT_NAMED 1938-02-12 18:00:00 NR -14.2858 50.9317 main 82 65 _____P________ -1 -14.2858 50.9317 99 5 215
1938040S14060 1938 13 SI MM NOT_NAMED 1938-02-12 21:00:00 NR -14.4963 50.7940 main 65 48 _____P________ -1 -14.4963 50.7940 99 5 211
1938040S14060 1938 13 SI MM NOT_NAMED 1938-02-13 00:00:00 NR -14.7098 50.6641 main 48 21 _____P________ -1 -14.7098 50.6641 99 5 211
1938040S14060 1938 13 SI MM NOT_NAMED 1938-02-13 03:00:00 NR -14.9149 50.5351 main 21 0 _____P________ -1 -14.9149 50.5351 99 5 213
1938040S14060 1938 13 SI MM NOT_NAMED 1938-02-13 06:00:00 NR -15.1000 50.4000 reunion main 0 0 _____O________ -1 -15.1000 50.4000 99 9.90000 4 227
1938040S14060 1938 13 SI MM NOT_NAMED 1938-02-13 09:00:00 NR -15.2144 50.2065 main 0 0 _____P________ -1 -15.2144 50.2065 99 4 241
1938040S14060 1938 13 SI MM NOT_NAMED 1938-02-13 12:00:00 NR -15.3134 50.0082 main 0 0 _____P________ -1 -15.3134 50.0082 99 4 244
1938040S14060 1938 13 SI MM NOT_NAMED 1938-02-13 15:00:00 NR -15.4008 49.8101 main 0 0 _____P________ -1 -15.4008 49.8101 99 4 246
1938040S14060 1938 13 SI MM NOT_NAMED 1938-02-13 18:00:00 NR -15.4804 49.6172 main 0 0 _____P________ -1 -15.4804 49.6172 99 4 247
1938040S14060 1938 13 SI MM NOT_NAMED 1938-02-13 21:00:00 NR -15.5562 49.4347 main 0 0 _____P________ -1 -15.5562 49.4347 99 4 246
1938040S14060 1938 13 SI MM NOT_NAMED 1938-02-14 00:00:00 NR -15.6322 49.2677 main 0 0 _____P________ -1 -15.6322 49.2677 99 3 243
1938040S14060 1938 13 SI MM NOT_NAMED 1938-02-14 03:00:00 NR -15.7121 49.1211 main 0 0 _____P________ -1 -15.7121 49.1211 99 3 237
1938040S14060 1938 13 SI MM NOT_NAMED 1938-02-14 06:00:00 NR -15.8000 49.0000 reunion main 0 0 _____O________ -1 -15.8000 49.0000 99 9.90000 3 228
1938040S14060 1938 13 SI MM NOT_NAMED 1938-02-14 09:00:00 NR -15.9108 48.8906 main 0 0 _____P________ -1 -15.9108 48.8906 99 3 220
1938040S14060 1938 13 SI MM NOT_NAMED 1938-02-14 12:00:00 NR -16.0279 48.8030 main 0 0 _____P________ -1 -16.0279 48.8030 99 3 212
1938040S14060 1938 13 SI MM NOT_NAMED 1938-02-14 15:00:00 NR -16.1503 48.7384 main 0 0 _____P________ -1 -16.1503 48.7384 99 3 203
1938040S14060 1938 13 SI MM NOT_NAMED 1938-02-14 18:00:00 NR -16.2768 48.6979 main 0 0 _____P________ -1 -16.2768 48.6979 99 3 193
1938040S14060 1938 13 SI MM NOT_NAMED 1938-02-14 21:00:00 NR -16.4062 48.6827 main 0 0 _____P________ -1 -16.4062 48.6827 99 3 0
1938040S14060 1938 13 SI MM NOT_NAMED 1938-02-15 00:00:00 NR -16.5373 48.6938 main 0 0 _____P________ -1 -16.5373 48.6938 99 3 172
1938040S14060 1938 13 SI MM NOT_NAMED 1938-02-15 03:00:00 NR -16.6690 48.7325 main 0 0 _____P________ -1 -16.6690 48.7325 99 3 158
1938040S14060 1938 13 SI MM NOT_NAMED 1938-02-15 06:00:00 NR -16.8000 48.8000 reunion main 0 0 _____O________ -1 -16.8000 48.8000 99 9.90000 3 152
1938040S14060 1938 13 SI MM NOT_NAMED 1938-02-15 09:00:00 NR -16.9036 48.8609 main 0 0 _____P________ -1 -16.9036 48.8609 99 3 145
1938040S14060 1938 13 SI MM NOT_NAMED 1938-02-15 12:00:00 NR -17.0045 48.9496 main 0 0 _____P________ -1 -17.0045 48.9496 99 3 136
1938040S14060 1938 13 SI MM NOT_NAMED 1938-02-15 15:00:00 NR -17.1073 49.0667 main 0 0 _____P________ -1 -17.1073 49.0667 99 3 130
1938040S14060 1938 13 SI MM NOT_NAMED 1938-02-15 18:00:00 NR -17.2161 49.2127 main 0 0 _____P________ -1 -17.2161 49.2127 99 4 127
1938040S14060 1938 13 SI MM NOT_NAMED 1938-02-15 21:00:00 NR -17.3355 49.3883 main 0 0 _____P________ -1 -17.3355 49.3883 99 4 125
1938040S14060 1938 13 SI MM NOT_NAMED 1938-02-16 00:00:00 NR -17.4697 49.5943 main 21 21 _____P________ -1 -17.4697 49.5943 99 5 124
1938040S14060 1938 13 SI MM NOT_NAMED 1938-02-16 03:00:00 NR -17.6231 49.8312 main 33 33 _____P________ -1 -17.6231 49.8312 99 6 124
1938040S14060 1938 13 SI MM NOT_NAMED 1938-02-16 06:00:00 NR -17.8000 50.1000 reunion main 64 64 _____O________ -1 -17.8000 50.1000 99 9.90000 7 126
1938040S14060 1938 13 SI MM NOT_NAMED 1938-02-16 09:00:00 NR -18.0396 50.4338 main 101 101 _____P________ -1 -18.0396 50.4338 99 8 127
1938040S14060 1938 13 SI MM NOT_NAMED 1938-02-16 12:00:00 NR -18.3056 50.8086 main 148 148 _____P________ -1 -18.3056 50.8086 99 9 127
1938040S14060 1938 13 SI MM NOT_NAMED 1938-02-16 15:00:00 NR -18.5880 51.2101 main 195 195 _____P________ -1 -18.5880 51.2101 99 10 126
1938040S14060 1938 13 SI MM NOT_NAMED 1938-02-16 18:00:00 NR -18.8767 51.6236 main 244 244 _____P________ -1 -18.8767 51.6236 99 10 126
1938040S14060 1938 13 SI MM NOT_NAMED 1938-02-16 21:00:00 NR -19.1619 52.0344 main 295 295 _____P________ -1 -19.1619 52.0344 99 9 126
1938040S14060 1938 13 SI MM NOT_NAMED 1938-02-17 00:00:00 NR -19.4339 52.4275 main 343 295 _____P________ -1 -19.4339 52.4275 99 9 126
1938040S14060 1938 13 SI MM NOT_NAMED 1938-02-17 03:00:00 NR -19.6831 52.7878 main 295 256 _____P________ -1 -19.6831 52.7878 99 8 126
1938040S14060 1938 13 SI MM NOT_NAMED 1938-02-17 06:00:00 NR -19.9000 53.1000 reunion main 256 227 _____O________ -1 -19.9000 53.1000 99 9.90000 7 127
1938040S14060 1938 13 SI MM NOT_NAMED 1938-02-17 09:00:00 NR -20.0777 53.3525 main 218 203 _____P________ -1 -20.0777 53.3525 99 5 127
1938040S14060 1938 13 SI MM NOT_NAMED 1938-02-17 12:00:00 NR -20.2191 53.5493 main 203 179 _____P________ -1 -20.2191 53.5493 99 4 128
1938040S14060 1938 13 SI MM NOT_NAMED 1938-02-17 15:00:00 NR -20.3296 53.6980 main 179 165 _____P________ -1 -20.3296 53.6980 99 3 129
1938040S14060 1938 13 SI MM NOT_NAMED 1938-02-17 18:00:00 NR -20.4143 53.8066 main 165 150 _____P________ -1 -20.4143 53.8066 99 2 131
1938040S14060 1938 13 SI MM NOT_NAMED 1938-02-17 21:00:00 NR -20.4786 53.8831 main 150 150 _____P________ -1 -20.4786 53.8831 99 2 134
1938040S14060 1938 13 SI MM NOT_NAMED 1938-02-18 00:00:00 NR -20.5276 53.9355 main 150 136 _____P________ -1 -20.5276 53.9355 99 1 138
1938040S14060 1938 13 SI MM NOT_NAMED 1938-02-18 03:00:00 NR -20.5664 53.9718 main 136 136 _____P________ -1 -20.5664 53.9718 99 1 145
1938040S14060 1938 13 SI MM NOT_NAMED 1938-02-18 06:00:00 NR -20.6000 54.0000 reunion main 136 _____O________ -1 -20.6000 54.0000 99 9.90000 1 148

About IBTrACS Database

This database is a web-friendly format of International Best Track Archive for Climate Stewardship (IBTrACS), a global best track data archive curated by NOAA dating back to 1842.

Updated: 2021-11-26